CYYJ

Victoria International Airport

Victoria, , Canada
METAR CYYJ 200700Z 24002KT 30SM SCT130 BKN170 M04/M07 A3020 RMK AC4AC3 SLP231
Observed Flight Rules
Feb-20 @ 07:00 UTC (28 minutes ago) Visual Flight Rules
Wind Visibility Clouds
240° at 2 knots 30 miles
  • Scattered at 13,000' AGL
  • Broken at 17,000' AGL
Temperatures Readings
Current -4°C / 25°F
Dewpoint -7°C / 19°F
Humidity 80%
Altimeter 30.2" Hg
Pressure 1023.1 hPa
Elevation 19
METAR CYYJ 200700Z 24002KT 30SM SCT130 BKN170 M04/M07 A3020 RMK AC4AC3 SLP231
Observed Flight Rules
Feb-20 @ 07:00 UTC
(28 minutes ago)
VFR
Wind Visibility
240° at 2 knots 30 miles
Clouds
  • Scattered at 13,000' AGL
  • Broken at 17,000' AGL
Temperature Dewpoint
-4°C / 25°F -7°C / 19°F
Humidity Altimeter Pressure
80% 30.2" Hg 1023.1 hPa